Time;durP1;ratioP1;P1;durP2;ratioP2;P2;SDS_P1;SDS_P2;PMS_P1;PMS_P2;Temp;Humidity;BMP_temperature;BMP_pressure;BME280_temperature;BME280_humidity;BME280_pressure;Samples;Min_cycle;Max_cycle;Signal;HPM_P1;HPM_P2
2022/08/31 00:04:01;;;;;;;3.60;1.85;;;19.20;96.10;;;;;;5082198;28;20202;-57
2022/08/31 00:06:32;;;;;;;3.35;1.90;;;19.30;96.10;;;;;;5093808;28;20537;-57
2022/08/31 00:08:58;;;;;;;8.90;2.20;;;19.20;96.20;;;;;;5075695;28;20234;-58
2022/08/31 00:11:29;;;;;;;4.45;2.05;;;19.20;96.20;;;;;;5085026;28;20205;-59
2022/08/31 00:13:58;;;;;;;3.72;2.00;;;19.20;96.30;;;;;;5094374;28;20709;-58
2022/08/31 00:16:27;;;;;;;4.68;2.00;;;19.10;96.30;;;;;;5101571;28;20177;-58
2022/08/31 00:18:53;;;;;;;6.63;2.20;;;19.10;96.40;;;;;;5098631;28;20181;-57
2022/08/31 00:21:21;;;;;;;3.70;2.00;;;19.10;96.50;;;;;;5075834;28;20192;-59
2022/08/31 00:23:48;;;;;;;5.13;2.10;;;19.10;96.50;;;;;;5102517;27;20200;-59
2022/08/31 00:26:14;;;;;;;4.60;2.05;;;19.10;96.60;;;;;;5114119;28;20203;-57
2022/08/31 00:28:40;;;;;;;2.53;1.77;;;19.00;96.60;;;;;;5078312;28;20267;-56
2022/08/31 00:31:06;;;;;;;2.72;1.58;;;19.10;96.60;;;;;;5093041;28;20592;-59
2022/08/31 00:33:31;;;;;;;4.18;1.83;;;19.00;96.60;;;;;;5092466;28;20634;-59
2022/08/31 00:35:57;;;;;;;3.65;1.60;;;19.10;96.60;;;;;;5112577;28;20179;-55
2022/08/31 00:38:23;;;;;;;3.17;1.80;;;19.10;96.70;;;;;;5097495;28;20264;-55
2022/08/31 00:40:50;;;;;;;6.95;1.90;;;19.00;96.60;;;;;;5093466;28;20182;-56
2022/08/31 00:43:34;;;;;;;3.33;1.60;;;19.00;96.70;;;;;;5062206;28;20210;-56
2022/08/31 00:46:00;;;;;;;10.40;1.63;;;19.00;96.70;;;;;;5092869;28;20660;-56
2022/08/31 00:48:26;;;;;;;4.50;1.80;;;19.00;96.70;;;;;;5096077;28;20174;-56
2022/08/31 00:50:51;;;;;;;5.38;1.60;;;18.90;96.70;;;;;;5092765;28;20663;-58
2022/08/31 00:53:18;;;;;;;5.22;1.77;;;18.90;96.80;;;;;;5093826;28;20221;-58
2022/08/31 00:55:44;;;;;;;2.70;1.70;;;18.90;96.80;;;;;;5094332;28;20342;-63
2022/08/31 00:58:11;;;;;;;3.20;1.70;;;18.90;96.80;;;;;;5107647;28;20190;-56
2022/08/31 01:00:39;;;;;;;9.02;2.38;;;18.90;96.90;;;;;;5088033;28;20178;-56
2022/08/31 01:03:06;;;;;;;6.50;1.60;;;18.90;96.80;;;;;;5085192;28;20219;-61
2022/08/31 01:05:34;;;;;;;3.63;1.63;;;19.00;96.90;;;;;;5097081;28;20219;-55
2022/08/31 01:08:01;;;;;;;2.30;1.70;;;18.90;96.80;;;;;;5089114;28;20263;-57
2022/08/31 01:10:31;;;;;;;2.92;1.52;;;18.90;96.90;;;;;;5096961;28;20252;-56
2022/08/31 01:12:58;;;;;;;2.60;1.67;;;18.90;96.90;;;;;;5113491;28;20188;-57
2022/08/31 01:15:27;;;;;;;5.97;1.67;;;18.90;96.90;;;;;;5097993;28;20177;-57
2022/08/31 01:17:55;;;;;;;5.28;1.67;;;18.90;97.00;;;;;;5098010;28;20185;-56
2022/08/31 01:20:27;;;;;;;2.47;1.50;;;18.90;97.00;;;;;;5117098;28;20170;-58
2022/08/31 01:23:23;;;;;;;3.83;1.30;;;18.90;97.00;;;;;;5088886;28;20537;-56
2022/08/31 01:25:52;;;;;;;6.45;1.30;;;18.90;97.00;;;;;;5070701;28;20189;-59
2022/08/31 01:28:18;;;;;;;4.78;1.73;;;18.90;97.00;;;;;;5089473;28;20658;-56
2022/08/31 01:30:57;;;;;;;5.38;1.70;;;18.90;97.10;;;;;;5117685;28;20176;-57
2022/08/31 01:33:23;;;;;;;3.40;1.70;;;18.90;97.10;;;;;;5083956;28;20240;-57
2022/08/31 01:35:49;;;;;;;5.10;1.55;;;18.90;97.20;;;;;;5097568;28;21562;-63
2022/08/31 01:38:15;;;;;;;4.47;1.60;;;18.90;97.30;;;;;;5069070;28;20174;-55
2022/08/31 01:40:51;;;;;;;3.65;1.52;;;18.80;97.30;;;;;;5089276;28;20294;-58
2022/08/31 01:43:17;;;;;;;5.28;1.55;;;18.80;97.30;;;;;;5104950;28;20292;-58
2022/08/31 01:45:43;;;;;;;3.65;1.42;;;18.80;97.40;;;;;;5092405;28;20213;-58
2022/08/31 01:48:09;;;;;;;5.68;2.50;;;18.80;97.50;;;;;;5093637;28;20233;-59
2022/08/31 01:50:35;;;;;;;5.00;1.90;;;18.80;97.60;;;;;;5082009;28;20178;-57
2022/08/31 01:53:02;;;;;;;5.82;1.98;;;18.70;97.70;;;;;;5096211;28;20298;-58
2022/08/31 01:55:29;;;;;;;4.93;1.92;;;18.70;97.90;;;;;;5078005;28;20178;-57
2022/08/31 01:57:57;;;;;;;2.67;1.75;;;18.70;98.00;;;;;;5064798;27;20656;-61
2022/08/31 02:00:39;;;;;;;5.15;1.67;;;18.70;98.10;;;;;;5083387;28;20653;-59
2022/08/31 02:03:06;;;;;;;4.43;1.80;;;18.70;98.20;;;;;;5084363;28;20205;-57
2022/08/31 02:05:36;;;;;;;7.03;2.05;;;18.70;98.30;;;;;;5078007;28;20239;-58
2022/08/31 02:08:05;;;;;;;4.63;1.80;;;18.70;98.40;;;;;;5086373;28;20177;-57
2022/08/31 02:10:31;;;;;;;4.63;1.88;;;18.70;98.40;;;;;;5080207;28;20273;-57
2022/08/31 02:12:57;;;;;;;3.92;1.70;;;18.70;98.40;;;;;;5096891;28;20200;-57
2022/08/31 02:15:29;;;;;;;3.47;1.75;;;18.70;98.40;;;;;;5116331;28;20157;-58
2022/08/31 02:17:55;;;;;;;3.55;1.85;;;18.60;98.40;;;;;;5106306;28;20278;-62
2022/08/31 02:20:22;;;;;;;4.20;1.95;;;18.60;98.40;;;;;;5078153;28;20192;-61
2022/08/31 02:22:49;;;;;;;7.10;1.80;;;18.60;98.50;;;;;;5089986;28;20637;-55
2022/08/31 02:25:16;;;;;;;2.83;1.52;;;18.60;98.60;;;;;;5060790;28;20268;-57
2022/08/31 02:27:43;;;;;;;2.65;2.00;;;18.60;99.00;;;;;;5095946;27;20198;-63
2022/08/31 02:30:12;;;;;;;6.40;1.92;;;18.60;98.60;;;;;;5091790;28;20182;-58
2022/08/31 02:32:38;;;;;;;3.08;1.90;;;18.60;98.70;;;;;;5089106;28;20181;-57
2022/08/31 02:35:04;;;;;;;3.85;1.83;;;18.50;98.80;;;;;;5068315;28;20269;-57
2022/08/31 02:37:30;;;;;;;5.22;2.22;;;18.50;98.80;;;;;;5096025;28;20198;-58
2022/08/31 02:39:56;;;;;;;2.53;1.70;;;18.50;98.90;;;;;;5082778;28;20212;-57
2022/08/31 02:42:22;;;;;;;4.50;2.00;;;18.50;98.90;;;;;;5095778;28;20740;-56
2022/08/31 02:44:50;;;;;;;4.05;1.95;;;18.40;99.00;;;;;;5097350;28;20181;-57
2022/08/31 02:47:16;;;;;;;4.28;2.00;;;18.40;99.00;;;;;;5107781;28;20173;-63
2022/08/31 02:50:04;;;;;;;4.50;1.77;;;18.40;99.10;;;;;;5097332;27;20189;-57
2022/08/31 02:52:30;;;;;;;3.85;1.80;;;18.40;99.10;;;;;;5093385;28;20214;-57
2022/08/31 02:54:56;;;;;;;3.30;2.10;;;18.40;99.10;;;;;;5095060;28;20195;-57
2022/08/31 02:57:22;;;;;;;5.90;2.00;;;18.30;99.20;;;;;;5092486;28;20190;-59
2022/08/31 02:59:48;;;;;;;3.70;1.83;;;18.30;99.30;;;;;;5077077;28;20178;-57
2022/08/31 03:02:14;;;;;;;2.83;1.65;;;18.30;99.30;;;;;;5061654;28;20306;-57
2022/08/31 03:04:40;;;;;;;3.65;2.05;;;18.30;99.40;;;;;;5075350;28;20178;-57
2022/08/31 03:07:06;;;;;;;2.85;1.80;;;18.20;99.40;;;;;;5090390;28;20195;-57
2022/08/31 03:09:32;;;;;;;4.00;1.90;;;18.20;99.50;;;;;;5082392;28;20178;-57
2022/08/31 03:11:59;;;;;;;3.58;1.70;;;18.20;99.50;;;;;;5101170;28;20182;-57
2022/08/31 03:14:25;;;;;;;3.47;1.80;;;18.10;99.60;;;;;;5094771;28;20260;-57
2022/08/31 03:16:52;;;;;;;2.10;1.65;;;18.20;99.60;;;;;;5094465;28;20238;-57
2022/08/31 03:19:19;;;;;;;4.65;1.90;;;18.10;99.60;;;;;;5083991;28;20188;-57
2022/08/31 03:21:45;;;;;;;6.10;2.13;;;18.10;99.60;;;;;;5077593;28;20212;-57
2022/08/31 03:24:13;;;;;;;5.63;1.70;;;18.10;99.60;;;;;;5076866;28;20217;-55
2022/08/31 03:26:39;;;;;;;3.05;1.70;;;18.10;99.60;;;;;;5059645;28;20197;-57
2022/08/31 03:29:06;;;;;;;3.92;1.75;;;18.10;99.60;;;;;;5076905;28;20208;-59
2022/08/31 03:31:50;;;;;;;2.70;1.70;;;18.10;99.60;;;;;;5093580;28;20193;-56
2022/08/31 03:34:16;;;;;;;3.20;1.80;;;18.00;99.60;;;;;;5093031;28;20220;-56
2022/08/31 03:36:42;;;;;;;2.72;1.50;;;18.00;99.60;;;;;;5075718;28;20215;-58
2022/08/31 03:39:08;;;;;;;5.68;2.00;;;18.00;99.60;;;;;;5076035;28;20170;-56
2022/08/31 03:41:34;;;;;;;4.28;2.20;;;18.00;99.70;;;;;;5073445;28;20185;-62
2022/08/31 03:44:04;;;;;;;5.57;2.30;;;18.00;99.80;;;;;;5105459;28;20216;-56
2022/08/31 03:46:32;;;;;;;5.90;2.60;;;17.90;99.90;;;;;;5110032;28;20261;-55
2022/08/31 03:49:02;;;;;;;5.80;2.53;;;17.90;99.90;;;;;;5111697;28;20272;-56
2022/08/31 03:51:29;;;;;;;6.20;2.50;;;17.90;99.90;;;;;;5096355;28;20245;-55
2022/08/31 03:53:55;;;;;;;5.93;2.40;;;17.80;99.90;;;;;;5092240;28;20581;-54
2022/08/31 03:56:21;;;;;;;3.38;2.00;;;17.80;99.90;;;;;;5091567;28;20177;-58
2022/08/31 03:58:49;;;;;;;3.33;2.10;;;17.80;99.90;;;;;;5091960;28;20173;-58
2022/08/31 04:01:53;;;;;;;6.50;2.35;;;17.70;99.90;;;;;;5042058;28;20237;-55
2022/08/31 04:04:50;;;;;;;6.15;2.25;;;17.70;99.90;;;;;;5025125;28;20698;-57
2022/08/31 04:07:36;;;;;;;3.38;1.95;;;17.60;99.90;;;;;;5085467;28;20197;-57
2022/08/31 04:10:28;;;;;;;7.25;1.88;;;17.60;99.90;;;;;;5085756;28;20197;-55
2022/08/31 04:13:12;;;;;;;3.83;1.77;;;17.60;99.90;;;;;;5091685;28;20285;-58
2022/08/31 04:16:17;;;;;;;5.13;1.70;;;17.50;99.90;;;;;;5036146;28;20714;-59
2022/08/31 04:19:07;;;;;;;2.78;1.83;;;17.50;99.90;;;;;;5094267;28;20197;-57
2022/08/31 04:21:39;;;;;;;3.35;1.80;;;17.50;99.90;;;;;;5112872;28;20219;-60
2022/08/31 04:24:05;;;;;;;4.00;1.73;;;17.50;99.90;;;;;;5093770;28;20836;-56
2022/08/31 04:26:35;;;;;;;5.15;1.58;;;17.40;99.90;;;;;;5085942;28;20238;-58
2022/08/31 04:29:01;;;;;;;2.38;1.50;;;17.40;99.90;;;;;;5081159;28;20178;-61
2022/08/31 04:31:28;;;;;;;1.88;1.58;;;17.50;99.90;;;;;;5093316;28;20177;-56
2022/08/31 04:33:55;;;;;;;3.72;1.52;;;17.40;99.90;;;;;;5086978;28;20588;-56
2022/08/31 04:36:24;;;;;;;3.03;1.58;;;17.40;99.90;;;;;;5079690;28;20250;-57
2022/08/31 04:38:55;;;;;;;3.67;1.77;;;17.40;99.90;;;;;;5106861;28;20180;-58
2022/08/31 04:41:23;;;;;;;2.78;1.58;;;17.30;99.90;;;;;;5093926;28;20175;-60
2022/08/31 04:43:54;;;;;;;4.13;1.80;;;17.30;99.90;;;;;;5076344;28;20845;-55
2022/08/31 04:46:22;;;;;;;5.60;1.70;;;17.30;99.90;;;;;;5095426;28;20203;-56
2022/08/31 04:48:48;;;;;;;5.25;1.75;;;17.20;99.90;;;;;;5060638;28;20166;-57
2022/08/31 04:51:17;;;;;;;4.60;2.40;;;17.20;99.90;;;;;;5092842;28;20182;-58
2022/08/31 04:53:44;;;;;;;2.53;1.90;;;17.20;99.90;;;;;;5079005;28;20229;-60
2022/08/31 04:56:16;;;;;;;4.95;1.95;;;17.20;99.90;;;;;;5079760;28;20238;-65
2022/08/31 04:58:45;;;;;;;7.38;3.92;;;17.20;99.90;;;;;;5089741;28;20188;-61
2022/08/31 05:01:14;;;;;;;3.38;2.00;;;17.20;99.90;;;;;;5076529;28;20177;-59
2022/08/31 05:03:54;;;;;;;4.75;2.00;;;17.20;99.90;;;;;;5106643;28;20204;-61
2022/08/31 05:06:22;;;;;;;4.38;2.00;;;17.10;99.90;;;;;;5112008;28;20181;-60
2022/08/31 05:08:57;;;;;;;7.13;1.77;;;17.10;99.90;;;;;;5092892;28;20318;-61
2022/08/31 05:11:24;;;;;;;3.58;1.90;;;17.10;99.90;;;;;;5088429;28;20172;-58
2022/08/31 05:13:51;;;;;;;5.00;1.60;;;17.10;99.90;;;;;;5099050;28;20181;-59
2022/08/31 05:16:18;;;;;;;2.60;1.90;;;17.10;99.90;;;;;;5078574;28;20186;-61
2022/08/31 05:18:47;;;;;;;3.75;2.15;;;17.10;99.80;;;;;;5075336;28;20202;-59
2022/08/31 05:21:29;;;;;;;3.33;1.80;;;17.10;99.70;;;;;;5074796;28;20197;-60
2022/08/31 05:24:01;;;;;;;3.15;1.70;;;17.10;99.60;;;;;;5078360;28;20534;-72
2022/08/31 05:26:31;;;;;;;3.33;1.83;;;17.10;99.50;;;;;;5085423;28;20235;-59
2022/08/31 05:28:59;;;;;;;3.83;1.52;;;17.00;99.40;;;;;;5093277;28;20587;-59
2022/08/31 05:31:28;;;;;;;4.65;1.60;;;17.10;99.40;;;;;;5071926;28;20166;-63
2022/08/31 05:33:57;;;;;;;2.50;1.70;;;17.00;99.30;;;;;;5088088;28;20173;-63
2022/08/31 05:36:34;;;;;;;6.20;1.70;;;17.10;99.20;;;;;;5094837;28;20165;-63
2022/08/31 05:39:00;;;;;;;3.58;1.98;;;17.10;99.10;;;;;;5092251;28;20212;-65
2022/08/31 05:41:28;;;;;;;4.40;1.80;;;17.00;99.10;;;;;;5087874;28;20177;-63
2022/08/31 05:43:54;;;;;;;2.85;1.50;;;17.00;99.00;;;;;;5084842;28;20206;-64
2022/08/31 05:46:21;;;;;;;3.67;1.42;;;17.10;98.90;;;;;;5104999;28;20293;-65
2022/08/31 05:48:47;;;;;;;2.28;1.42;;;17.10;98.80;;;;;;5092632;28;20696;-64
2022/08/31 05:51:16;;;;;;;3.60;1.35;;;17.10;98.60;;;;;;5116476;28;20201;-63
2022/08/31 05:53:42;;;;;;;2.38;1.60;;;17.10;98.40;;;;;;5080452;28;20221;-62
2022/08/31 05:56:13;;;;;;;2.35;1.20;;;17.10;98.20;;;;;;5087552;28;20205;-62
2022/08/31 05:58:41;;;;;;;3.55;1.08;;;17.10;97.90;;;;;;5082093;28;20223;-64
2022/08/31 06:01:23;;;;;;;2.47;1.13;;;17.10;97.70;;;;;;5083562;28;20637;-62
2022/08/31 06:04:04;;;;;;;5.63;1.33;;;17.10;97.50;;;;;;5088470;28;20201;-62
2022/08/31 06:06:31;;;;;;;1.13;0.95;;;17.10;97.30;;;;;;5097945;28;20193;-62
2022/08/31 06:08:57;;;;;;;4.10;1.20;;;17.10;97.10;;;;;;5083564;28;20189;-63
2022/08/31 06:11:26;;;;;;;1.75;1.10;;;17.10;97.00;;;;;;5087703;28;20243;-61
2022/08/31 06:13:54;;;;;;;2.60;1.20;;;17.10;96.90;;;;;;5081527;28;20220;-62
2022/08/31 06:16:23;;;;;;;3.85;2.10;;;17.10;96.80;;;;;;5099505;28;20622;-62
2022/08/31 06:18:50;;;;;;;5.57;1.27;;;17.10;96.80;;;;;;5069752;28;20233;-61
2022/08/31 06:21:19;;;;;;;3.00;1.80;;;17.20;96.80;;;;;;5097867;28;20234;-62
2022/08/31 06:23:48;;;;;;;1.92;1.30;;;17.20;96.80;;;;;;5079420;28;20247;-64
2022/08/31 06:26:16;;;;;;;2.33;1.48;;;17.20;96.80;;;;;;5077487;28;20213;-61
2022/08/31 06:28:44;;;;;;;3.72;1.13;;;17.20;96.80;;;;;;5090082;28;20188;-61
2022/08/31 06:31:20;;;;;;;1.83;1.20;;;17.20;96.80;;;;;;5114576;28;20184;-61
2022/08/31 06:33:47;;;;;;;4.88;1.40;;;17.30;96.80;;;;;;5112943;28;20267;-62
2022/08/31 06:36:20;;;;;;;2.88;1.33;;;17.30;96.90;;;;;;5088688;28;20293;-62
2022/08/31 06:38:56;;;;;;;3.10;1.20;;;17.30;97.00;;;;;;5088571;28;20256;-63
2022/08/31 06:41:36;;;;;;;6.25;1.40;;;17.40;97.10;;;;;;5080029;28;20177;-63
2022/08/31 06:44:25;;;;;;;6.05;1.35;;;17.40;97.20;;;;;;5105621;28;20190;-62
2022/08/31 06:47:05;;;;;;;9.55;1.73;;;17.40;97.30;;;;;;5063386;28;20238;-64
2022/08/31 06:49:34;;;;;;;7.10;1.60;;;17.50;97.50;;;;;;5078324;28;20246;-63
2022/08/31 06:52:01;;;;;;;3.83;1.33;;;17.50;97.60;;;;;;5086198;28;20259;-63
2022/08/31 06:54:29;;;;;;;1.85;1.25;;;17.60;97.70;;;;;;5076265;28;20683;-62
2022/08/31 06:57:14;;;;;;;5.03;1.30;;;17.60;97.80;;;;;;5077824;28;20243;-60
2022/08/31 07:00:12;;;;;;;4.28;1.60;;;17.70;98.00;;;;;;5055397;28;20194;-63
2022/08/31 07:02:56;;;;;;;6.40;1.73;;;17.70;98.00;;;;;;5095103;28;20694;-63
2022/08/31 07:05:22;;;;;;;4.80;1.20;;;17.70;98.10;;;;;;5086363;28;20273;-63
2022/08/31 07:07:48;;;;;;;2.03;1.00;;;17.80;98.20;;;;;;5086592;28;20260;-64
2022/08/31 07:10:14;;;;;;;3.22;1.40;;;17.80;98.20;;;;;;5091379;28;20188;-63
2022/08/31 07:12:39;;;;;;;4.20;1.10;;;17.80;98.30;;;;;;5084352;28;20177;-63
2022/08/31 07:15:06;;;;;;;4.50;1.13;;;17.90;98.30;;;;;;5076013;28;20728;-63
2022/08/31 07:17:32;;;;;;;4.55;1.00;;;17.90;98.20;;;;;;5076832;28;20261;-63
2022/08/31 07:19:59;;;;;;;4.30;1.05;;;18.00;98.00;;;;;;5063092;28;20181;-65
2022/08/31 07:22:25;;;;;;;2.63;1.00;;;18.10;98.00;;;;;;5092752;28;20219;-63
2022/08/31 07:25:00;;;;;;;7.05;1.27;;;18.10;97.90;;;;;;5084300;28;20185;-63
2022/08/31 07:27:26;;;;;;;3.63;1.30;;;18.20;97.80;;;;;;5088262;28;20277;-61
2022/08/31 07:29:59;;;;;;;5.15;1.27;;;18.20;97.70;;;;;;5078767;28;20759;-64
2022/08/31 07:32:27;;;;;;;2.75;1.15;;;18.20;97.40;;;;;;5072156;28;20186;-63
2022/08/31 07:34:52;;;;;;;6.75;1.17;;;18.30;97.20;;;;;;5058796;28;20200;-63
2022/08/31 07:42:54;;;;;;;3.03;1.25;;;18.40;96.70;;;;;;5075543;28;20209;-65
2022/08/31 07:45:22;;;;;;;6.00;1.00;;;18.50;96.60;;;;;;5094500;27;20185;-63
2022/08/31 07:47:50;;;;;;;1.77;0.80;;;18.50;96.50;;;;;;5084308;28;20170;-64
2022/08/31 07:50:19;;;;;;;5.28;1.00;;;18.60;96.50;;;;;;5076076;28;20173;-63
2022/08/31 07:52:57;;;;;;;4.90;1.10;;;18.70;96.30;;;;;;5059981;28;20240;-64
2022/08/31 07:55:46;;;;;;;3.42;1.10;;;18.70;96.10;;;;;;5107884;28;20191;-64
2022/08/31 07:58:33;;;;;;;2.60;0.88;;;18.80;95.90;;;;;;5093643;28;20275;-63
2022/08/31 08:01:01;;;;;;;3.50;1.00;;;18.80;95.80;;;;;;5076604;28;20178;-63
2022/08/31 08:03:29;;;;;;;3.72;1.10;;;18.90;95.80;;;;;;5095236;28;20205;-64
2022/08/31 08:06:15;;;;;;;3.42;0.90;;;18.90;95.80;;;;;;5093218;28;20281;-63
2022/08/31 08:09:05;;;;;;;3.00;1.05;;;19.00;95.60;;;;;;5093739;28;20195;-63
2022/08/31 08:11:44;;;;;;;1.58;0.90;;;19.00;95.20;;;;;;5091432;28;21047;-63
2022/08/31 08:14:38;;;;;;;2.45;1.00;;;19.10;94.90;;;;;;5074392;28;20190;-63
2022/08/31 08:17:13;;;;;;;7.20;1.10;;;19.10;94.70;;;;;;5090193;28;20179;-63
2022/08/31 08:19:45;;;;;;;7.00;1.55;;;19.20;94.60;;;;;;5079810;28;20176;-63
2022/08/31 08:22:10;;;;;;;2.50;1.00;;;19.30;94.60;;;;;;5090666;28;20253;-63
2022/08/31 08:25:05;;;;;;;3.83;1.30;;;19.30;94.50;;;;;;5093422;28;20676;-65
2022/08/31 08:27:54;;;;;;;4.18;1.20;;;19.40;94.50;;;;;;5084954;28;20204;-63
2022/08/31 08:30:25;;;;;;;8.45;1.13;;;19.50;94.40;;;;;;5096462;28;20177;-62
2022/08/31 08:32:51;;;;;;;2.45;1.10;;;19.50;94.30;;;;;;5085512;28;20181;-62
2022/08/31 08:35:17;;;;;;;2.50;0.85;;;19.60;94.10;;;;;;5110133;28;20533;-63
2022/08/31 08:37:47;;;;;;;8.18;1.10;;;19.60;93.90;;;;;;5081023;28;20516;-63
2022/08/31 08:40:30;;;;;;;5.20;1.08;;;19.70;93.80;;;;;;5067939;28;20306;-63
2022/08/31 08:42:58;;;;;;;8.20;1.10;;;19.70;93.70;;;;;;5088885;28;20232;-63
2022/08/31 08:45:25;;;;;;;3.75;1.20;;;19.80;93.50;;;;;;5090215;28;20189;-63
2022/08/31 08:47:53;;;;;;;4.50;1.48;;;19.80;93.20;;;;;;5085530;28;20178;-63
2022/08/31 08:50:20;;;;;;;4.32;1.10;;;19.90;93.10;;;;;;5075896;28;20170;-63
2022/08/31 08:52:47;;;;;;;3.03;0.80;;;19.90;93.10;;;;;;5096952;28;20243;-63
2022/08/31 08:55:24;;;;;;;5.72;1.17;;;20.00;93.00;;;;;;5113510;28;20199;-63
2022/08/31 08:57:54;;;;;;;2.33;1.00;;;20.00;92.90;;;;;;5084909;28;20260;-63
2022/08/31 09:00:24;;;;;;;3.72;0.85;;;20.10;92.60;;;;;;5065369;28;20609;-63
2022/08/31 09:03:20;;;;;;;3.15;1.08;;;20.10;92.40;;;;;;5097696;28;20203;-64
2022/08/31 09:06:23;;;;;;;5.78;1.20;;;20.20;92.30;;;;;;5064125;28;20181;-63
2022/08/31 09:09:08;;;;;;;6.32;1.25;;;20.30;92.30;;;;;;5087939;28;20173;-64
2022/08/31 09:11:48;;;;;;;6.80;1.33;;;20.40;92.10;;;;;;5093975;28;20181;-64
2022/08/31 09:14:38;;;;;;;4.90;1.00;;;20.40;92.00;;;;;;5106347;28;20189;-64
2022/08/31 09:17:34;;;;;;;4.13;1.10;;;20.50;91.90;;;;;;5096882;28;20195;-64
2022/08/31 09:20:02;;;;;;;2.47;1.08;;;20.60;91.70;;;;;;5079162;28;20189;-64
2022/08/31 09:22:45;;;;;;;1.85;1.25;;;20.60;91.60;;;;;;5080394;28;20255;-65
2022/08/31 09:25:17;;;;;;;10.05;1.30;;;20.60;91.50;;;;;;5090337;28;20277;-64
2022/08/31 09:28:13;;;;;;;3.20;1.10;;;20.70;91.50;;;;;;5053705;28;20197;-63
2022/08/31 09:30:52;;;;;;;4.50;1.00;;;20.80;91.50;;;;;;5113612;28;20530;-64
2022/08/31 09:33:25;;;;;;;3.75;1.30;;;20.80;91.30;;;;;;5093842;28;20184;-64
2022/08/31 09:36:13;;;;;;;5.85;1.20;;;20.90;91.20;;;;;;5107735;28;20197;-64
2022/08/31 09:38:40;;;;;;;4.15;1.10;;;21.00;91.20;;;;;;5097282;27;20185;-64
2022/08/31 09:41:36;;;;;;;7.25;1.10;;;21.10;91.00;;;;;;5096182;28;20255;-64
2022/08/31 09:44:27;;;;;;;3.53;1.00;;;21.10;90.80;;;;;;5097576;27;20208;-64
2022/08/31 09:46:55;;;;;;;2.47;1.30;;;21.20;90.70;;;;;;5114174;28;20169;-64
2022/08/31 09:49:27;;;;;;;5.00;1.35;;;21.30;90.70;;;;;;5096582;28;20265;-65
2022/08/31 09:52:18;;;;;;;3.90;1.20;;;21.40;90.70;;;;;;5078168;28;20285;-65
2022/08/31 09:55:12;;;;;;;4.03;1.23;;;21.40;90.40;;;;;;5096619;27;20220;-65
2022/08/31 09:58:01;;;;;;;4.57;1.10;;;21.50;89.60;;;;;;5074748;28;20182;-64
2022/08/31 10:00:38;;;;;;;5.57;1.10;;;21.60;90.00;;;;;;5108976;28;20201;-64
2022/08/31 10:03:18;;;;;;;3.28;1.30;;;21.60;89.80;;;;;;5105681;28;20205;-65
2022/08/31 10:05:45;;;;;;;3.72;1.23;;;21.60;89.30;;;;;;5100151;28;20266;-65
2022/08/31 10:08:38;;;;;;;3.03;1.00;;;21.70;88.60;;;;;;5068412;28;20188;-65
2022/08/31 10:11:11;;;;;;;2.15;1.15;;;21.70;87.80;;;;;;5103610;28;20177;-65
2022/08/31 10:13:42;;;;;;;4.88;1.00;;;21.80;87.30;;;;;;5106965;28;20177;-65
2022/08/31 10:16:31;;;;;;;2.13;1.00;;;21.90;86.90;;;;;;5093925;28;20181;-65
2022/08/31 10:19:13;;;;;;;3.40;1.10;;;21.90;85.00;;;;;;5114106;28;20181;-65
2022/08/31 10:21:53;;;;;;;9.65;1.17;;;22.00;84.10;;;;;;5112255;28;20585;-64
2022/08/31 10:24:43;;;;;;;2.20;1.00;;;22.00;83.40;;;;;;5097701;28;20203;-65
2022/08/31 10:27:37;;;;;;;4.55;1.02;;;22.10;83.40;;;;;;5096097;27;20182;-65
2022/08/31 10:30:27;;;;;;;4.47;0.98;;;22.20;82.30;;;;;;5088357;28;20214;-64
2022/08/31 10:33:03;;;;;;;2.95;1.00;;;22.30;79.60;;;;;;5095506;28;20186;-64
2022/08/31 10:35:53;;;;;;;7.72;1.10;;;22.40;78.20;;;;;;5095358;27;20259;-64
2022/08/31 10:38:42;;;;;;;4.47;0.93;;;22.50;77.20;;;;;;5099081;28;20260;-64
2022/08/31 10:41:32;;;;;;;2.47;0.95;;;22.60;75.50;;;;;;5097656;28;20172;-64
2022/08/31 10:44:38;;;;;;;2.22;0.60;;;22.70;74.00;;;;;;5090619;28;20264;-64
2022/08/31 10:47:04;;;;;;;2.60;0.80;;;22.70;72.30;;;;;;5083426;28;20205;-64
2022/08/31 10:49:37;;;;;;;4.05;1.02;;;22.90;72.00;;;;;;5079869;28;20189;-65
2022/08/31 10:52:19;;;;;;;7.45;0.90;;;22.90;71.40;;;;;;5077539;28;20641;-66
2022/08/31 10:54:51;;;;;;;3.42;1.00;;;23.10;70.80;;;;;;5106122;28;20212;-64
2022/08/31 10:57:31;;;;;;;3.47;0.90;;;23.20;69.50;;;;;;5099368;28;20394;-64
2022/08/31 11:00:40;;;;;;;2.45;0.80;;;23.30;68.50;;;;;;5096729;27;20234;-64
2022/08/31 11:03:00;;;;;;;4.05;1.33;;;23.40;67.60;;;;;;5093206;28;20213;-65
2022/08/31 11:05:39;;;;;;;5.05;0.88;;;23.60;67.10;;;;;;5093292;28;20606;-64
2022/08/31 11:08:24;;;;;;;3.10;0.90;;;23.70;65.90;;;;;;5095156;28;20201;-64
2022/08/31 11:10:52;;;;;;;8.02;0.82;;;23.80;64.50;;;;;;5093782;28;20166;-66
2022/08/31 11:13:37;;;;;;;7.35;1.27;;;23.90;62.80;;;;;;5091838;28;20213;-65
2022/08/31 11:16:05;;;;;;;5.28;0.88;;;24.00;61.50;;;;;;5091270;27;20178;-64
2022/08/31 11:18:44;;;;;;;4.78;1.00;;;24.00;60.10;;;;;;5096608;28;20239;-64
2022/08/31 11:21:55;;;;;;;4.38;1.10;;;24.10;59.10;;;;;;5099963;28;20241;-64
2022/08/31 11:24:36;;;;;;;2.55;0.93;;;24.10;58.80;;;;;;5084572;28;20235;-64
2022/08/31 11:27:25;;;;;;;4.53;1.15;;;24.20;58.70;;;;;;5094424;28;20173;-64
2022/08/31 11:29:57;;;;;;;8.23;1.15;;;24.30;58.10;;;;;;5076008;28;20174;-64
2022/08/31 11:32:34;;;;;;;5.47;0.70;;;24.40;58.30;;;;;;5076801;28;20166;-64
2022/08/31 11:35:07;;;;;;;5.95;0.95;;;24.50;58.60;;;;;;5093926;27;20177;-63
2022/08/31 11:37:54;;;;;;;5.07;0.90;;;24.60;58.50;;;;;;5094639;28;20198;-63
2022/08/31 11:40:41;;;;;;;8.93;1.20;;;24.70;58.40;;;;;;5104990;28;20178;-63
2022/08/31 11:43:13;;;;;;;6.00;0.90;;;24.80;58.10;;;;;;5101619;28;20206;-63
2022/08/31 11:45:40;;;;;;;1.77;0.80;;;24.80;57.50;;;;;;5110009;28;20165;-63
2022/08/31 11:48:27;;;;;;;2.70;0.73;;;24.90;57.50;;;;;;5076326;28;20761;-63
2022/08/31 11:50:53;;;;;;;5.28;1.10;;;25.00;57.80;;;;;;5094586;28;20181;-63
2022/08/31 11:53:33;;;;;;;7.20;1.00;;;25.10;57.20;;;;;;5094612;28;20294;-63
2022/08/31 11:56:02;;;;;;;8.18;1.27;;;25.20;56.70;;;;;;5110131;28;20177;-63
2022/08/31 11:58:37;;;;;;;5.88;1.20;;;25.30;57.00;;;;;;5098097;28;20521;-63
2022/08/31 12:01:11;;;;;;;2.05;0.82;;;25.30;56.70;;;;;;5093677;28;20177;-63
2022/08/31 12:03:39;;;;;;;1.15;0.75;;;25.40;56.00;;;;;;5077432;28;20207;-63
2022/08/31 12:06:28;;;;;;;5.55;1.20;;;25.40;55.70;;;;;;5091987;27;20236;-63
2022/08/31 12:09:12;;;;;;;7.38;0.93;;;25.50;55.20;;;;;;5070648;28;20197;-63
2022/08/31 12:11:50;;;;;;;9.45;1.00;;;25.50;53.60;;;;;;5085769;28;20357;-63
2022/08/31 12:14:36;;;;;;;6.75;0.93;;;25.50;54.40;;;;;;5089917;28;20268;-63
2022/08/31 12:17:12;;;;;;;3.33;0.95;;;25.60;54.00;;;;;;5101219;28;21480;-63
2022/08/31 12:20:07;;;;;;;5.95;0.80;;;25.70;53.90;;;;;;5072232;28;20546;-63
2022/08/31 12:26:10;;;;;;;6.60;1.15;;;25.90;53.00;;;;;;5093741;28;20165;-63
2022/08/31 12:28:36;;;;;;;5.35;0.90;;;26.00;53.40;;;;;;5073513;28;20638;-62
2022/08/31 12:31:08;;;;;;;4.80;0.80;;;26.00;53.20;;;;;;5092648;28;20258;-62
2022/08/31 12:33:39;;;;;;;3.28;0.90;;;26.20;53.00;;;;;;5093272;28;20273;-63
2022/08/31 12:36:23;;;;;;;4.32;1.00;;;26.30;52.30;;;;;;5095501;28;20556;-63
2022/08/31 12:39:19;;;;;;;7.30;0.82;;;26.30;51.10;;;;;;5099935;28;20550;-63
2022/08/31 12:41:53;;;;;;;12.75;1.50;;;26.40;51.00;;;;;;5092088;28;20393;-63
2022/08/31 12:44:29;;;;;;;3.38;0.95;;;26.50;51.40;;;;;;5097873;28;20275;-64
2022/08/31 12:47:05;;;;;;;3.15;0.90;;;26.50;51.00;;;;;;5110779;28;20698;-63
2022/08/31 12:49:49;;;;;;;3.28;0.93;;;26.50;50.90;;;;;;5074950;28;20192;-63
2022/08/31 12:52:43;;;;;;;3.33;1.00;;;26.70;50.90;;;;;;5094189;28;20185;-64
2022/08/31 12:55:38;;;;;;;4.90;0.73;;;26.80;50.70;;;;;;5093163;28;20178;-63
2022/08/31 12:58:22;;;;;;;4.25;0.85;;;26.90;49.70;;;;;;5092944;28;20212;-63
2022/08/31 13:00:49;;;;;;;2.50;0.90;;;26.90;49.50;;;;;;5086666;28;20183;-63
2022/08/31 13:03:25;;;;;;;4.63;0.75;;;27.00;49.50;;;;;;5087818;28;20210;-62
2022/08/31 13:06:12;;;;;;;2.97;0.90;;;27.20;49.90;;;;;;5084677;28;20177;-63
2022/08/31 13:08:43;;;;;;;3.95;2.20;;;27.30;49.50;;;;;;5092356;28;20623;-63
2022/08/31 13:11:23;;;;;;;4.22;0.95;;;27.50;48.70;;;;;;5100925;28;20195;-63
2022/08/31 13:13:50;;;;;;;2.88;0.85;;;27.60;48.60;;;;;;5102290;28;20177;-63
2022/08/31 13:16:17;;;;;;;9.73;1.30;;;27.80;47.90;;;;;;5092067;28;20631;-63
2022/08/31 13:18:45;;;;;;;5.20;1.02;;;27.90;47.50;;;;;;5095775;28;20177;-63
2022/08/31 13:21:18;;;;;;;4.88;1.08;;;28.00;47.20;;;;;;5093058;28;20201;-63
2022/08/31 13:23:47;;;;;;;4.03;0.80;;;28.10;46.80;;;;;;5072887;28;20627;-63
2022/08/31 13:26:24;;;;;;;5.95;0.80;;;28.10;46.40;;;;;;5095019;28;20569;-63
2022/08/31 13:28:54;;;;;;;9.35;0.85;;;28.10;46.00;;;;;;5095841;28;20196;-64
2022/08/31 13:31:29;;;;;;;6.13;0.80;;;28.30;46.40;;;;;;5111860;28;20177;-63